Mammoth Spring, AR

9:11 AM CDT on July 28, 2015 (GMT -0500)
Riverbend Rd. | | Change Station
CLOSE
Current Station
Personal Weather Station
Location: Mammoth Spring, AR
Elevation: 538 ft
Nearby Weather Stations

Elev 538 ft 36.48 °N, 91.53 °W | Updated 4 seconds ago

Clear
Clear
78.6 °F
Feels Like 82 °F
N
0.9
Wind Variable Wind from SSE
Gusts 4.0 mph

Today
High -- | Low -- °F
--% Chance of Precip.
Yesterday
High -- | Low -- °F
Precip. -- in
6:09 AM 8:15 PM
Waxing Gibbous, 89% visible
Pressure 29.99 in
Visibility 10.0 miles
Clouds Clear
Heat Index 82 °F
Dew Point 77 °F
Humidity 94%
Rainfall 0.00 in
Snow Depth Not available.
UV 3 out of 12
Pollen 5.10 out of 12
Air Quality Not available.
Flu Activity Not available.
METAR KUNO 281353Z AUTO 21005KT 10SM CLR 28/23 A3003 RMK AO2 SLP154 T02830228

More Conditions Fewer Conditions

Pressure 29.99 in
Visibility 10.0 miles
Clouds Clear
Heat Index 82 °F
Dew Point 77 °F
Humidity 94%
Rainfall 0.00 in
Snow Depth Not available.
UV 3 out of 12
Pollen 5.10 out of 12
Air Quality Not available.
Flu Activity Not available.
METAR KUNO 281353Z AUTO 21005KT 10SM CLR 28/23 A3003 RMK AO2 SLP154 T02830228

More Conditions Fewer Conditions

10-Day Weather Forecast

×

Almanac

Astronomy

Jul. 28, 2015 Rise Set
Actual Time
Civil Twilight
Nautical Twilight
Astronomical Twilight
Moon
Length of Visible Light
Length of Day
Tomorrow will be .
, % of the Moon is Illuminated

Today's Extremes

State Highs State Lows

Community

WunderPhotos

Upload Photos

1,841,836 photos uploaded!

WunderBlogs® & News

Nearby

Air Quality

  Air Quality AQ Index Pollutant
Not available.

Snow Depth

Station Depth Elevation

Earthquake Activity

City Distance Mag. Time & Date
Minimum magnitude displayed is 2.5.

Coastal Water Temperatures

Place Temperature

Stations

Nearby Weather Stations

Station Location Temp. Windchill Dew Point Humidity Wind Precip. Elev Updated Type